WMT4783 LATI-EDDK
Flight info
| Callsign | WMT4783 |
|---|---|
| Flight time | 1h 55m |
| Altitude | 38000 |
| Route | INLOT DCT RETRA DCT GACMO DCT TUPUS DCT NEMEK DCT NIPEL DCT ERKIR Q863 TEKSI/N0411F320 Q863 GUPIN DCT UMDAS T844 ASKIK/N0362F240 T840 GULKO GULKO1C |
| Aircraft | A320/M-SDE1E2E3FGIJ1J4RWXY/LB1 |
Departure
| Time | 2026-04-23 21:40 |
|---|---|
| Airport | Tirana International Airport Mother Teresa (LATI) |
Arrival
| Time | 2026-04-23 23:36 |
|---|---|
| Airport | Cologne Bonn Airport (EDDK) |
| Time | Latitude | Longitude | Altitude | Speed | Heading |
|---|---|---|---|---|---|
| 2026-04-23 21:14 | 41.42105 | 19.71482 | 132 ft | 0 kts | 265° |
| 2026-04-23 21:29 | 41.42106 | 19.71488 | 132 ft | 4 kts | 265° |
| 2026-04-23 21:29 | 41.42106 | 19.71524 | 132 ft | 4 kts | 283° |
| 2026-04-23 21:29 | 41.42095 | 19.71553 | 132 ft | 4 kts | 338° |
| 2026-04-23 21:29 | 41.42088 | 19.71556 | 132 ft | 1 kts | 354° |
| 2026-04-23 21:33 | 41.42095 | 19.71556 | 132 ft | 3 kts | 354° |
| 2026-04-23 21:33 | 41.42128 | 19.71551 | 132 ft | 6 kts | 354° |
| 2026-04-23 21:33 | 41.42179 | 19.71544 | 132 ft | 9 kts | 354° |
| 2026-04-23 21:33 | 41.42229 | 19.71540 | 132 ft | 7 kts | 4° |
| 2026-04-23 21:34 | 41.42263 | 19.71592 | 132 ft | 9 kts | 82° |
| 2026-04-23 21:34 | 41.42271 | 19.71692 | 129 ft | 13 kts | 84° |
| 2026-04-23 21:34 | 41.42279 | 19.71801 | 127 ft | 14 kts | 84° |
| 2026-04-23 21:34 | 41.42286 | 19.71888 | 126 ft | 7 kts | 84° |
| 2026-04-23 21:35 | 41.42258 | 19.71952 | 124 ft | 10 kts | 162° |
| 2026-04-23 21:35 | 41.42175 | 19.71964 | 122 ft | 14 kts | 173° |
| 2026-04-23 21:35 | 41.42072 | 19.71978 | 126 ft | 17 kts | 176° |
| 2026-04-23 21:35 | 41.41947 | 19.71992 | 126 ft | 19 kts | 174° |
| 2026-04-23 21:36 | 41.41647 | 19.72032 | 126 ft | 24 kts | 174° |
| 2026-04-23 21:36 | 41.41480 | 19.72054 | 123 ft | 25 kts | 174° |
| 2026-04-23 21:36 | 41.41305 | 19.72078 | 126 ft | 26 kts | 174° |
| 2026-04-23 21:37 | 41.41137 | 19.72099 | 128 ft | 13 kts | 174° |
| 2026-04-23 21:37 | 41.41041 | 19.72112 | 127 ft | 15 kts | 174° |
| 2026-04-23 21:37 | 41.40930 | 19.72129 | 131 ft | 17 kts | 173° |
| 2026-04-23 21:37 | 41.40802 | 19.72146 | 132 ft | 19 kts | 174° |
| 2026-04-23 21:38 | 41.40663 | 19.72164 | 134 ft | 21 kts | 174° |
| 2026-04-23 21:38 | 41.40510 | 19.72184 | 132 ft | 20 kts | 176° |
| 2026-04-23 21:38 | 41.40361 | 19.72176 | 132 ft | 19 kts | 181° |
| 2026-04-23 21:38 | 41.40273 | 19.72179 | 132 ft | 6 kts | 177° |
| 2026-04-23 21:39 | 41.40272 | 19.72192 | 132 ft | 2 kts | 23° |
| 2026-04-23 21:39 | 41.40293 | 19.72202 | 132 ft | 5 kts | 19° |
| 2026-04-23 21:39 | 41.40334 | 19.72213 | 132 ft | 7 kts | 0° |
| 2026-04-23 21:39 | 41.40397 | 19.72203 | 132 ft | 15 kts | 354° |
| 2026-04-23 21:40 | 41.40708 | 19.72161 | 134 ft | 85 kts | 354° |
| 2026-04-23 21:40 | 41.41569 | 19.72047 | 129 ft | 158 kts | 354° |
| 2026-04-23 21:40 | 41.42766 | 19.71877 | 649 ft | 176 kts | 355° |
| 2026-04-23 21:40 | 41.43975 | 19.71742 | 1550 ft | 175 kts | 356° |
| 2026-04-23 21:41 | 41.45207 | 19.71620 | 2026 ft | 189 kts | 357° |
| 2026-04-23 21:41 | 41.46600 | 19.71483 | 2307 ft | 212 kts | 358° |
| 2026-04-23 21:41 | 41.48166 | 19.71330 | 2694 ft | 238 kts | 357° |
| 2026-04-23 21:41 | 41.49883 | 19.71156 | 3359 ft | 253 kts | 357° |
| 2026-04-23 21:42 | 41.51662 | 19.70966 | 4299 ft | 258 kts | 357° |
| 2026-04-23 21:42 | 41.53417 | 19.70531 | 5239 ft | 265 kts | 340° |
| 2026-04-23 21:42 | 41.54996 | 19.69223 | 6180 ft | 270 kts | 325° |
| 2026-04-23 21:42 | 41.56505 | 19.67712 | 7121 ft | 272 kts | 325° |
| 2026-04-23 21:43 | 41.58026 | 19.66183 | 8023 ft | 275 kts | 325° |
| 2026-04-23 21:43 | 41.59563 | 19.64634 | 8927 ft | 278 kts | 325° |
| 2026-04-23 21:43 | 41.61116 | 19.63070 | 9806 ft | 281 kts | 325° |
| 2026-04-23 21:43 | 41.62709 | 19.61469 | 10377 ft | 296 kts | 325° |
| 2026-04-23 21:44 | 41.64422 | 19.59757 | 10686 ft | 316 kts | 325° |
| 2026-04-23 21:44 | 41.66181 | 19.57995 | 11294 ft | 324 kts | 325° |
| 2026-04-23 21:44 | 41.67996 | 19.56168 | 12013 ft | 328 kts | 325° |
| 2026-04-23 21:44 | 41.69831 | 19.54312 | 12738 ft | 332 kts | 326° |
| 2026-04-23 21:45 | 41.71695 | 19.52428 | 13457 ft | 337 kts | 326° |
| 2026-04-23 21:45 | 41.73560 | 19.50546 | 14128 ft | 341 kts | 326° |
| 2026-04-23 21:45 | 41.75475 | 19.48617 | 14749 ft | 345 kts | 326° |
| 2026-04-23 21:45 | 41.77403 | 19.46675 | 15357 ft | 349 kts | 326° |
| 2026-04-23 21:46 | 41.79357 | 19.44700 | 15974 ft | 353 kts | 326° |
| 2026-04-23 21:46 | 41.81303 | 19.42727 | 16584 ft | 356 kts | 327° |
| 2026-04-23 21:46 | 41.83290 | 19.40709 | 17206 ft | 360 kts | 327° |
| 2026-04-23 21:46 | 41.85299 | 19.38671 | 17833 ft | 363 kts | 327° |
| 2026-04-23 21:47 | 41.87328 | 19.36612 | 18438 ft | 367 kts | 327° |
| 2026-04-23 21:47 | 41.89386 | 19.34522 | 18983 ft | 371 kts | 327° |
| 2026-04-23 21:47 | 41.91426 | 19.32453 | 19539 ft | 374 kts | 327° |
| 2026-04-23 21:47 | 41.93511 | 19.30340 | 20093 ft | 377 kts | 327° |
| 2026-04-23 21:48 | 41.95612 | 19.28203 | 20636 ft | 380 kts | 327° |
| 2026-04-23 21:48 | 41.97732 | 19.26040 | 21172 ft | 383 kts | 327° |
| 2026-04-23 21:48 | 41.99863 | 19.23865 | 21689 ft | 386 kts | 327° |
| 2026-04-23 21:48 | 42.01986 | 19.21695 | 22205 ft | 388 kts | 327° |
| 2026-04-23 21:49 | 42.04157 | 19.19477 | 22717 ft | 391 kts | 327° |
| 2026-04-23 21:49 | 42.06337 | 19.17250 | 23245 ft | 394 kts | 327° |
| 2026-04-23 21:49 | 42.08528 | 19.15011 | 23750 ft | 396 kts | 327° |
| 2026-04-23 21:49 | 42.10707 | 19.12787 | 24157 ft | 399 kts | 327° |
| 2026-04-23 21:50 | 42.12927 | 19.10519 | 24591 ft | 401 kts | 327° |
| 2026-04-23 21:50 | 42.15159 | 19.08230 | 25015 ft | 403 kts | 327° |
| 2026-04-23 21:50 | 42.17403 | 19.05918 | 25434 ft | 405 kts | 326° |
| 2026-04-23 21:50 | 42.19624 | 19.03630 | 25847 ft | 408 kts | 326° |
| 2026-04-23 21:51 | 42.21887 | 19.01303 | 26281 ft | 410 kts | 327° |
| 2026-04-23 21:51 | 42.24170 | 18.98957 | 26709 ft | 412 kts | 326° |
| 2026-04-23 21:51 | 42.26464 | 18.96599 | 27144 ft | 415 kts | 326° |
| 2026-04-23 21:51 | 42.28761 | 18.94231 | 27582 ft | 417 kts | 326° |
| 2026-04-23 21:52 | 42.31050 | 18.91867 | 27982 ft | 419 kts | 326° |
| 2026-04-23 21:52 | 42.33368 | 18.89472 | 28382 ft | 421 kts | 326° |
| 2026-04-23 21:52 | 42.35716 | 18.87042 | 28792 ft | 424 kts | 326° |
| 2026-04-23 21:52 | 42.38075 | 18.84601 | 29201 ft | 426 kts | 326° |
| 2026-04-23 21:53 | 42.40433 | 18.82160 | 29600 ft | 429 kts | 326° |
| 2026-04-23 21:53 | 42.42779 | 18.79726 | 30009 ft | 431 kts | 326° |
| 2026-04-23 21:53 | 42.45172 | 18.77239 | 30359 ft | 433 kts | 326° |
| 2026-04-23 21:53 | 42.47572 | 18.74743 | 30692 ft | 435 kts | 326° |
| 2026-04-23 21:54 | 42.49976 | 18.72238 | 31021 ft | 437 kts | 326° |
| 2026-04-23 21:54 | 42.52372 | 18.69742 | 31361 ft | 439 kts | 326° |
| 2026-04-23 21:54 | 42.54809 | 18.67206 | 31795 ft | 438 kts | 326° |
| 2026-04-23 21:54 | 42.57224 | 18.64688 | 32294 ft | 436 kts | 326° |
| 2026-04-23 21:55 | 42.59626 | 18.62178 | 32792 ft | 435 kts | 327° |
| 2026-04-23 21:55 | 42.61989 | 18.59709 | 33285 ft | 433 kts | 327° |
| 2026-04-23 21:55 | 42.64376 | 18.57214 | 33775 ft | 432 kts | 327° |
| 2026-04-23 21:55 | 42.66758 | 18.54721 | 34255 ft | 431 kts | 327° |
| 2026-04-23 21:56 | 42.69129 | 18.52236 | 34672 ft | 429 kts | 327° |
| 2026-04-23 21:56 | 42.71489 | 18.49756 | 35075 ft | 428 kts | 327° |
| 2026-04-23 21:56 | 42.73818 | 18.47308 | 35451 ft | 427 kts | 327° |
| 2026-04-23 21:56 | 42.76164 | 18.44841 | 35822 ft | 426 kts | 327° |
| 2026-04-23 21:57 | 42.78513 | 18.42369 | 36052 ft | 427 kts | 327° |
| 2026-04-23 21:57 | 42.83201 | 18.37433 | 36102 ft | 423 kts | 326° |
| 2026-04-23 21:58 | 42.87859 | 18.32509 | 36108 ft | 423 kts | 326° |
| 2026-04-23 21:58 | 42.92481 | 18.27607 | 36117 ft | 423 kts | 326° |
| 2026-04-23 21:59 | 42.97115 | 18.22697 | 36117 ft | 422 kts | 326° |
| 2026-04-23 21:59 | 43.01772 | 18.17746 | 36117 ft | 423 kts | 326° |
| 2026-04-23 22:00 | 43.08730 | 18.10329 | 36117 ft | 423 kts | 326° |
| 2026-04-23 22:00 | 43.13392 | 18.05361 | 36111 ft | 423 kts | 326° |
| 2026-04-23 22:01 | 43.18040 | 18.00391 | 36109 ft | 424 kts | 326° |
| 2026-04-23 22:01 | 43.22654 | 17.95435 | 36103 ft | 424 kts | 326° |
| 2026-04-23 22:02 | 43.27309 | 17.90437 | 36104 ft | 424 kts | 326° |
| 2026-04-23 22:02 | 43.31927 | 17.85467 | 36118 ft | 424 kts | 326° |
| 2026-04-23 22:03 | 43.36580 | 17.80454 | 36113 ft | 424 kts | 325° |
| 2026-04-23 22:03 | 43.41258 | 17.75400 | 36113 ft | 437 kts | 325° |
| 2026-04-23 22:04 | 43.46109 | 17.70142 | 36120 ft | 446 kts | 325° |
| 2026-04-23 22:04 | 43.50956 | 17.64880 | 36123 ft | 446 kts | 325° |
| 2026-04-23 22:05 | 43.55840 | 17.59560 | 36127 ft | 447 kts | 325° |
| 2026-04-23 22:05 | 43.60729 | 17.54235 | 36135 ft | 446 kts | 324° |
| 2026-04-23 22:06 | 43.65575 | 17.48946 | 36139 ft | 446 kts | 324° |
| 2026-04-23 22:06 | 43.70461 | 17.43602 | 36152 ft | 446 kts | 324° |
| 2026-04-23 22:07 | 43.75299 | 17.38303 | 36153 ft | 446 kts | 324° |
| 2026-04-23 22:07 | 43.80170 | 17.32943 | 36163 ft | 446 kts | 324° |
| 2026-04-23 22:08 | 43.84937 | 17.27509 | 36160 ft | 447 kts | 321° |
| 2026-04-23 22:08 | 43.89483 | 17.21582 | 36168 ft | 448 kts | 319° |
| 2026-04-23 22:09 | 43.93930 | 17.15525 | 36166 ft | 448 kts | 319° |
| 2026-04-23 22:09 | 43.98429 | 17.09528 | 36169 ft | 448 kts | 320° |
| 2026-04-23 22:10 | 44.02932 | 17.03627 | 36161 ft | 447 kts | 320° |
| 2026-04-23 22:10 | 44.07462 | 16.97683 | 36167 ft | 447 kts | 320° |
| 2026-04-23 22:11 | 44.11966 | 16.91737 | 36158 ft | 447 kts | 320° |
| 2026-04-23 22:11 | 44.16471 | 16.85764 | 36158 ft | 447 kts | 320° |
| 2026-04-23 22:12 | 44.20990 | 16.79764 | 36155 ft | 447 kts | 320° |
| 2026-04-23 22:12 | 44.25506 | 16.73761 | 36155 ft | 447 kts | 320° |
| 2026-04-23 22:13 | 44.29986 | 16.67790 | 36153 ft | 448 kts | 320° |
| 2026-04-23 22:13 | 44.34489 | 16.61773 | 36158 ft | 448 kts | 320° |
| 2026-04-23 22:14 | 44.38977 | 16.55762 | 36152 ft | 448 kts | 320° |
| 2026-04-23 22:14 | 44.43485 | 16.49711 | 36155 ft | 448 kts | 320° |
| 2026-04-23 22:15 | 44.47984 | 16.43655 | 36154 ft | 448 kts | 319° |
| 2026-04-23 22:15 | 44.52453 | 16.37622 | 36155 ft | 448 kts | 319° |
| 2026-04-23 22:16 | 44.56955 | 16.31541 | 36149 ft | 448 kts | 319° |
| 2026-04-23 22:16 | 44.61423 | 16.25498 | 36154 ft | 448 kts | 319° |
| 2026-04-23 22:17 | 44.65909 | 16.19399 | 36150 ft | 448 kts | 319° |
| 2026-04-23 22:17 | 44.70372 | 16.13330 | 36154 ft | 448 kts | 319° |
| 2026-04-23 22:18 | 44.74848 | 16.07236 | 36155 ft | 448 kts | 319° |
| 2026-04-23 22:18 | 44.79329 | 16.01106 | 36155 ft | 448 kts | 319° |
| 2026-04-23 22:19 | 44.83052 | 15.96008 | 36155 ft | 448 kts | 319° |
| 2026-04-23 22:19 | 44.87529 | 15.89854 | 36162 ft | 448 kts | 319° |
| 2026-04-23 22:20 | 44.91969 | 15.83728 | 36157 ft | 449 kts | 319° |
| 2026-04-23 22:20 | 44.96417 | 15.77611 | 36162 ft | 449 kts | 319° |
| 2026-04-23 22:21 | 45.00898 | 15.71439 | 36155 ft | 449 kts | 319° |
| 2026-04-23 22:21 | 45.05342 | 15.65284 | 36160 ft | 449 kts | 319° |
| 2026-04-23 22:22 | 45.09816 | 15.59065 | 36149 ft | 450 kts | 319° |
| 2026-04-23 22:22 | 45.14261 | 15.52870 | 36158 ft | 450 kts | 319° |
| 2026-04-23 22:23 | 45.18733 | 15.46623 | 36155 ft | 450 kts | 319° |
| 2026-04-23 22:23 | 45.23188 | 15.40404 | 36158 ft | 451 kts | 319° |
| 2026-04-23 22:24 | 45.27662 | 15.34143 | 36159 ft | 451 kts | 319° |
| 2026-04-23 22:24 | 45.32108 | 15.27900 | 36161 ft | 452 kts | 319° |
| 2026-04-23 22:25 | 45.36577 | 15.21612 | 36159 ft | 452 kts | 319° |
| 2026-04-23 22:25 | 45.41052 | 15.15284 | 36161 ft | 452 kts | 319° |
| 2026-04-23 22:26 | 45.45496 | 15.09001 | 36154 ft | 452 kts | 319° |
| 2026-04-23 22:26 | 45.49974 | 15.02657 | 36157 ft | 452 kts | 319° |
| 2026-04-23 22:27 | 45.54403 | 14.96360 | 36152 ft | 452 kts | 319° |
| 2026-04-23 22:27 | 45.58875 | 14.89984 | 36158 ft | 453 kts | 319° |
| 2026-04-23 22:28 | 45.63333 | 14.83622 | 36158 ft | 453 kts | 319° |
| 2026-04-23 22:28 | 45.67765 | 14.77276 | 36156 ft | 452 kts | 319° |
| 2026-04-23 22:29 | 45.72206 | 14.70906 | 36157 ft | 453 kts | 319° |
| 2026-04-23 22:29 | 45.76653 | 14.64513 | 36159 ft | 453 kts | 319° |
| 2026-04-23 22:30 | 45.81084 | 14.58118 | 36152 ft | 453 kts | 319° |
| 2026-04-23 22:30 | 45.85535 | 14.51680 | 36161 ft | 453 kts | 319° |
| 2026-04-23 22:31 | 45.89953 | 14.45279 | 36157 ft | 453 kts | 319° |
| 2026-04-23 22:31 | 45.94389 | 14.38831 | 36164 ft | 454 kts | 319° |
| 2026-04-23 22:32 | 45.98839 | 14.32365 | 36158 ft | 454 kts | 319° |
| 2026-04-23 22:32 | 46.03252 | 14.25938 | 36164 ft | 454 kts | 319° |
| 2026-04-23 22:33 | 46.07687 | 14.19437 | 36157 ft | 454 kts | 319° |
| 2026-04-23 22:33 | 46.12091 | 14.12969 | 36163 ft | 454 kts | 319° |
| 2026-04-23 22:34 | 46.16521 | 14.06455 | 36153 ft | 454 kts | 319° |
| 2026-04-23 22:34 | 46.20961 | 13.99915 | 36159 ft | 455 kts | 319° |
| 2026-04-23 22:35 | 46.25390 | 13.93380 | 36156 ft | 455 kts | 319° |
| 2026-04-23 22:35 | 46.29802 | 13.86851 | 36158 ft | 455 kts | 318° |
| 2026-04-23 22:36 | 46.34228 | 13.80277 | 36154 ft | 455 kts | 318° |
| 2026-04-23 22:36 | 46.38622 | 13.73736 | 36162 ft | 455 kts | 318° |
| 2026-04-23 22:37 | 46.43043 | 13.67135 | 36161 ft | 455 kts | 318° |
| 2026-04-23 22:37 | 46.47435 | 13.60570 | 36170 ft | 455 kts | 318° |
| 2026-04-23 22:38 | 46.51849 | 13.53967 | 36168 ft | 455 kts | 318° |
| 2026-04-23 22:38 | 46.56339 | 13.47468 | 36174 ft | 451 kts | 324° |
| 2026-04-23 22:39 | 46.61199 | 13.41690 | 36169 ft | 451 kts | 325° |
| 2026-04-23 22:39 | 46.66055 | 13.35967 | 36171 ft | 451 kts | 325° |
| 2026-04-23 22:40 | 46.70940 | 13.30192 | 36170 ft | 452 kts | 324° |
| 2026-04-23 22:41 | 46.78233 | 13.21509 | 36176 ft | 451 kts | 324° |
| 2026-04-23 22:41 | 46.83112 | 13.15678 | 36174 ft | 452 kts | 324° |
| 2026-04-23 22:42 | 46.87956 | 13.09879 | 36196 ft | 453 kts | 324° |
| 2026-04-23 22:42 | 46.92837 | 13.04024 | 36214 ft | 453 kts | 324° |
| 2026-04-23 22:43 | 46.97711 | 12.98154 | 36215 ft | 453 kts | 324° |
| 2026-04-23 22:43 | 47.02559 | 12.92313 | 36239 ft | 453 kts | 324° |
| 2026-04-23 22:44 | 47.07432 | 12.86417 | 36239 ft | 453 kts | 324° |
| 2026-04-23 22:44 | 47.12279 | 12.80551 | 36256 ft | 453 kts | 324° |
| 2026-04-23 22:45 | 47.17149 | 12.74639 | 36262 ft | 453 kts | 324° |
| 2026-04-23 22:45 | 47.22010 | 12.68719 | 36279 ft | 454 kts | 324° |
| 2026-04-23 22:46 | 47.26848 | 12.62806 | 36273 ft | 454 kts | 324° |
| 2026-04-23 22:46 | 47.31705 | 12.56852 | 36286 ft | 453 kts | 323° |
| 2026-04-23 22:47 | 47.36537 | 12.50922 | 36302 ft | 454 kts | 324° |
| 2026-04-23 22:47 | 47.41398 | 12.44947 | 36303 ft | 454 kts | 323° |
| 2026-04-23 22:48 | 47.46256 | 12.38958 | 36298 ft | 454 kts | 323° |
| 2026-04-23 22:48 | 47.51082 | 12.32997 | 36307 ft | 454 kts | 323° |
| 2026-04-23 22:49 | 47.55944 | 12.26976 | 36297 ft | 455 kts | 323° |
| 2026-04-23 22:49 | 47.60774 | 12.20985 | 36310 ft | 455 kts | 323° |
| 2026-04-23 22:50 | 47.65634 | 12.14933 | 36301 ft | 455 kts | 323° |
| 2026-04-23 22:50 | 47.70487 | 12.08869 | 36303 ft | 455 kts | 323° |
| 2026-04-23 22:51 | 47.75341 | 12.02800 | 36300 ft | 456 kts | 323° |
| 2026-04-23 22:51 | 47.80165 | 11.96752 | 36308 ft | 456 kts | 323° |
| 2026-04-23 22:52 | 47.85017 | 11.90638 | 36296 ft | 456 kts | 323° |
| 2026-04-23 22:52 | 47.89834 | 11.84553 | 36284 ft | 456 kts | 323° |
| 2026-04-23 22:53 | 47.94678 | 11.78428 | 36290 ft | 457 kts | 323° |
| 2026-04-23 22:53 | 47.99536 | 11.72287 | 36289 ft | 457 kts | 323° |
| 2026-04-23 22:54 | 48.04394 | 11.66112 | 36280 ft | 458 kts | 323° |
| 2026-04-23 22:54 | 48.09215 | 11.59971 | 36286 ft | 458 kts | 323° |
| 2026-04-23 22:55 | 48.14073 | 11.53775 | 36274 ft | 458 kts | 323° |
| 2026-04-23 22:55 | 48.18925 | 11.47561 | 36284 ft | 458 kts | 323° |
| 2026-04-23 22:56 | 48.23740 | 11.41375 | 36277 ft | 458 kts | 323° |
| 2026-04-23 22:56 | 48.28599 | 11.35120 | 36284 ft | 459 kts | 322° |
| 2026-04-23 22:57 | 48.33437 | 11.28868 | 36272 ft | 459 kts | 322° |
| 2026-04-23 22:57 | 48.38287 | 11.22586 | 36276 ft | 459 kts | 322° |
| 2026-04-23 22:58 | 48.43098 | 11.16350 | 36271 ft | 460 kts | 322° |
| 2026-04-23 22:58 | 48.47963 | 11.10030 | 36279 ft | 460 kts | 322° |
| 2026-04-23 22:59 | 48.52812 | 11.03701 | 36276 ft | 460 kts | 322° |
| 2026-04-23 22:59 | 48.57663 | 10.97354 | 36283 ft | 461 kts | 322° |
| 2026-04-23 23:00 | 48.62473 | 10.91035 | 36276 ft | 461 kts | 322° |
| 2026-04-23 23:00 | 48.67323 | 10.84667 | 36267 ft | 461 kts | 322° |
| 2026-04-23 23:01 | 48.72179 | 10.78281 | 36266 ft | 462 kts | 322° |
| 2026-04-23 23:01 | 48.76998 | 10.71911 | 36278 ft | 462 kts | 322° |
| 2026-04-23 23:02 | 48.81856 | 10.65474 | 36281 ft | 462 kts | 322° |
| 2026-04-23 23:02 | 48.86673 | 10.59069 | 36274 ft | 463 kts | 322° |
| 2026-04-23 23:03 | 48.91520 | 10.52605 | 36274 ft | 463 kts | 322° |
| 2026-04-23 23:03 | 48.96365 | 10.46129 | 36267 ft | 463 kts | 322° |
| 2026-04-23 23:04 | 49.01193 | 10.39677 | 36266 ft | 464 kts | 322° |
| 2026-04-23 23:04 | 49.06040 | 10.33176 | 36273 ft | 464 kts | 322° |
| 2026-04-23 23:05 | 49.10890 | 10.26643 | 36278 ft | 465 kts | 322° |
| 2026-04-23 23:05 | 49.15716 | 10.20123 | 36267 ft | 465 kts | 322° |
| 2026-04-23 23:06 | 49.20559 | 10.13552 | 36272 ft | 466 kts | 321° |
| 2026-04-23 23:06 | 49.25415 | 10.06960 | 36260 ft | 461 kts | 321° |
| 2026-04-23 23:06 | 49.27787 | 10.03733 | 36270 ft | 447 kts | 322° |
| 2026-04-23 23:07 | 49.30043 | 10.00657 | 36272 ft | 433 kts | 322° |
| 2026-04-23 23:07 | 49.32261 | 9.97627 | 36273 ft | 420 kts | 322° |
| 2026-04-23 23:07 | 49.34407 | 9.94689 | 36265 ft | 409 kts | 322° |
| 2026-04-23 23:08 | 49.38734 | 9.88789 | 36275 ft | 424 kts | 322° |
| 2026-04-23 23:08 | 49.43230 | 9.82661 | 36268 ft | 443 kts | 321° |
| 2026-04-23 23:09 | 49.47910 | 9.76215 | 36272 ft | 457 kts | 321° |
| 2026-04-23 23:09 | 49.52636 | 9.69677 | 35949 ft | 456 kts | 321° |
| 2026-04-23 23:10 | 49.56546 | 9.64260 | 35781 ft | 445 kts | 321° |
| 2026-04-23 23:10 | 49.58840 | 9.61084 | 35586 ft | 443 kts | 321° |
| 2026-04-23 23:10 | 49.61141 | 9.57903 | 35086 ft | 443 kts | 321° |
| 2026-04-23 23:10 | 49.63406 | 9.54766 | 34634 ft | 441 kts | 321° |
| 2026-04-23 23:11 | 49.65683 | 9.51610 | 34127 ft | 440 kts | 321° |
| 2026-04-23 23:11 | 49.67955 | 9.48446 | 33612 ft | 438 kts | 321° |
| 2026-04-23 23:11 | 49.70208 | 9.45298 | 33109 ft | 434 kts | 321° |
| 2026-04-23 23:11 | 49.72450 | 9.42167 | 32640 ft | 431 kts | 321° |
| 2026-04-23 23:12 | 49.74673 | 9.39060 | 32182 ft | 429 kts | 321° |
| 2026-04-23 23:12 | 49.76844 | 9.36021 | 31718 ft | 427 kts | 321° |
| 2026-04-23 23:12 | 49.79043 | 9.32940 | 31250 ft | 424 kts | 321° |
| 2026-04-23 23:12 | 49.81230 | 9.29877 | 30807 ft | 422 kts | 321° |
| 2026-04-23 23:13 | 49.83399 | 9.26834 | 30372 ft | 420 kts | 321° |
| 2026-04-23 23:13 | 49.85562 | 9.23792 | 29899 ft | 418 kts | 321° |
| 2026-04-23 23:13 | 49.87703 | 9.20780 | 29462 ft | 413 kts | 321° |
| 2026-04-23 23:13 | 49.89819 | 9.17790 | 29067 ft | 410 kts | 321° |
| 2026-04-23 23:14 | 49.91922 | 9.14814 | 28654 ft | 406 kts | 321° |
| 2026-04-23 23:14 | 49.94006 | 9.11869 | 28245 ft | 403 kts | 321° |
| 2026-04-23 23:14 | 49.96074 | 9.08949 | 27834 ft | 400 kts | 321° |
| 2026-04-23 23:14 | 49.98096 | 9.06080 | 27439 ft | 397 kts | 320° |
| 2026-04-23 23:15 | 50.00132 | 9.03185 | 27023 ft | 395 kts | 320° |
| 2026-04-23 23:15 | 50.02156 | 9.00308 | 26609 ft | 392 kts | 320° |
| 2026-04-23 23:15 | 50.04169 | 8.97449 | 26176 ft | 390 kts | 320° |
| 2026-04-23 23:15 | 50.06175 | 8.94599 | 25749 ft | 388 kts | 320° |
| 2026-04-23 23:16 | 50.08166 | 8.91768 | 25314 ft | 386 kts | 320° |
| 2026-04-23 23:16 | 50.10143 | 8.88944 | 24881 ft | 385 kts | 320° |
| 2026-04-23 23:16 | 50.12090 | 8.86163 | 24429 ft | 384 kts | 320° |
| 2026-04-23 23:16 | 50.14053 | 8.83351 | 23984 ft | 382 kts | 320° |
| 2026-04-23 23:17 | 50.16011 | 8.80539 | 23485 ft | 381 kts | 320° |
| 2026-04-23 23:17 | 50.17955 | 8.77749 | 23036 ft | 377 kts | 320° |
| 2026-04-23 23:17 | 50.19872 | 8.74995 | 22590 ft | 373 kts | 320° |
| 2026-04-23 23:17 | 50.21779 | 8.72261 | 22151 ft | 369 kts | 320° |
| 2026-04-23 23:18 | 50.23669 | 8.69556 | 21714 ft | 366 kts | 320° |
| 2026-04-23 23:18 | 50.25509 | 8.66917 | 21288 ft | 363 kts | 320° |
| 2026-04-23 23:18 | 50.27365 | 8.64247 | 20850 ft | 360 kts | 320° |
| 2026-04-23 23:18 | 50.29202 | 8.61593 | 20424 ft | 357 kts | 320° |
| 2026-04-23 23:19 | 50.31019 | 8.58959 | 19992 ft | 355 kts | 320° |
| 2026-04-23 23:19 | 50.32821 | 8.56344 | 19564 ft | 353 kts | 320° |
| 2026-04-23 23:19 | 50.34613 | 8.53743 | 19145 ft | 350 kts | 320° |
| 2026-04-23 23:19 | 50.36396 | 8.51158 | 18734 ft | 348 kts | 320° |
| 2026-04-23 23:20 | 50.38177 | 8.48578 | 18258 ft | 346 kts | 320° |
| 2026-04-23 23:20 | 50.39935 | 8.46028 | 17850 ft | 342 kts | 320° |
| 2026-04-23 23:20 | 50.41649 | 8.43538 | 17431 ft | 339 kts | 320° |
| 2026-04-23 23:20 | 50.43370 | 8.41035 | 17036 ft | 336 kts | 320° |
| 2026-04-23 23:21 | 50.45075 | 8.38551 | 16639 ft | 333 kts | 319° |
| 2026-04-23 23:21 | 50.46768 | 8.36081 | 16234 ft | 330 kts | 319° |
| 2026-04-23 23:21 | 50.48444 | 8.33634 | 15850 ft | 328 kts | 319° |
| 2026-04-23 23:21 | 50.50114 | 8.31195 | 15451 ft | 326 kts | 319° |
| 2026-04-23 23:22 | 50.51768 | 8.28780 | 15062 ft | 324 kts | 319° |
| 2026-04-23 23:22 | 50.53416 | 8.26368 | 14667 ft | 322 kts | 319° |
| 2026-04-23 23:22 | 50.55051 | 8.23968 | 14275 ft | 321 kts | 319° |
| 2026-04-23 23:22 | 50.56659 | 8.21602 | 13882 ft | 320 kts | 319° |
| 2026-04-23 23:23 | 50.58285 | 8.19210 | 13483 ft | 318 kts | 319° |
| 2026-04-23 23:23 | 50.59896 | 8.16839 | 13094 ft | 315 kts | 319° |
| 2026-04-23 23:23 | 50.61476 | 8.14516 | 12712 ft | 313 kts | 319° |
| 2026-04-23 23:23 | 50.63067 | 8.12173 | 12331 ft | 311 kts | 319° |
| 2026-04-23 23:24 | 50.64640 | 8.09851 | 11954 ft | 309 kts | 319° |
| 2026-04-23 23:24 | 50.66202 | 8.07545 | 11574 ft | 307 kts | 319° |
| 2026-04-23 23:24 | 50.67751 | 8.05258 | 11197 ft | 301 kts | 319° |
| 2026-04-23 23:24 | 50.69261 | 8.03025 | 10832 ft | 293 kts | 319° |
| 2026-04-23 23:25 | 50.70738 | 8.00836 | 10477 ft | 291 kts | 319° |
| 2026-04-23 23:25 | 50.72215 | 7.98647 | 10106 ft | 291 kts | 319° |
| 2026-04-23 23:25 | 50.73650 | 7.96453 | 9717 ft | 291 kts | 313° |
| 2026-04-23 23:25 | 50.74730 | 7.93750 | 9349 ft | 293 kts | 295° |
| 2026-04-23 23:26 | 50.75226 | 7.90618 | 8971 ft | 296 kts | 276° |
| 2026-04-23 23:26 | 50.75165 | 7.87354 | 8587 ft | 297 kts | 268° |
| 2026-04-23 23:26 | 50.75026 | 7.84098 | 8204 ft | 296 kts | 268° |
| 2026-04-23 23:26 | 50.74892 | 7.80909 | 7826 ft | 287 kts | 268° |
| 2026-04-23 23:27 | 50.74760 | 7.77815 | 7462 ft | 278 kts | 268° |
| 2026-04-23 23:27 | 50.74631 | 7.74823 | 7107 ft | 268 kts | 268° |
| 2026-04-23 23:27 | 50.74509 | 7.71968 | 6775 ft | 259 kts | 268° |
| 2026-04-23 23:27 | 50.74389 | 7.69166 | 6428 ft | 251 kts | 268° |
| 2026-04-23 23:28 | 50.74273 | 7.66448 | 6111 ft | 247 kts | 268° |
| 2026-04-23 23:28 | 50.74155 | 7.63734 | 5766 ft | 248 kts | 268° |
| 2026-04-23 23:28 | 50.74036 | 7.61003 | 5338 ft | 252 kts | 268° |
| 2026-04-23 23:28 | 50.73918 | 7.58230 | 5013 ft | 252 kts | 268° |
| 2026-04-23 23:29 | 50.73800 | 7.55479 | 4719 ft | 249 kts | 268° |
| 2026-04-23 23:29 | 50.73682 | 7.52776 | 4432 ft | 243 kts | 268° |
| 2026-04-23 23:29 | 50.73567 | 7.50226 | 4302 ft | 228 kts | 268° |
| 2026-04-23 23:29 | 50.73454 | 7.47785 | 4204 ft | 217 kts | 268° |
| 2026-04-23 23:30 | 50.73349 | 7.45496 | 4119 ft | 200 kts | 268° |
| 2026-04-23 23:30 | 50.73252 | 7.43390 | 4014 ft | 184 kts | 268° |
| 2026-04-23 23:30 | 50.73162 | 7.41367 | 3939 ft | 191 kts | 268° |
| 2026-04-23 23:30 | 50.73071 | 7.39260 | 3855 ft | 196 kts | 268° |
| 2026-04-23 23:31 | 50.72982 | 7.37109 | 3767 ft | 195 kts | 272° |
| 2026-04-23 23:31 | 50.73204 | 7.35116 | 3651 ft | 174 kts | 293° |
| 2026-04-23 23:31 | 50.73783 | 7.33545 | 3452 ft | 157 kts | 313° |
| 2026-04-23 23:31 | 50.74524 | 7.32422 | 3268 ft | 144 kts | 320° |
| 2026-04-23 23:32 | 50.75249 | 7.31378 | 3073 ft | 139 kts | 320° |
| 2026-04-23 23:32 | 50.75961 | 7.30353 | 2887 ft | 138 kts | 320° |
| 2026-04-23 23:32 | 50.76669 | 7.29335 | 2704 ft | 137 kts | 320° |
| 2026-04-23 23:32 | 50.77372 | 7.28323 | 2513 ft | 137 kts | 320° |
| 2026-04-23 23:33 | 50.78068 | 7.27322 | 2333 ft | 137 kts | 320° |
| 2026-04-23 23:33 | 50.78773 | 7.26306 | 2142 ft | 137 kts | 321° |
| 2026-04-23 23:33 | 50.79478 | 7.25290 | 1956 ft | 137 kts | 320° |
| 2026-04-23 23:33 | 50.80181 | 7.24278 | 1765 ft | 136 kts | 320° |
| 2026-04-23 23:34 | 50.80881 | 7.23269 | 1576 ft | 136 kts | 320° |
| 2026-04-23 23:34 | 50.81576 | 7.22266 | 1389 ft | 135 kts | 319° |
| 2026-04-23 23:34 | 50.82259 | 7.21280 | 1209 ft | 134 kts | 319° |
| 2026-04-23 23:34 | 50.82945 | 7.20289 | 1027 ft | 133 kts | 318° |
| 2026-04-23 23:35 | 50.83627 | 7.19304 | 849 ft | 132 kts | 318° |
| 2026-04-23 23:35 | 50.84300 | 7.18332 | 678 ft | 130 kts | 318° |
| 2026-04-23 23:35 | 50.84966 | 7.17367 | 486 ft | 129 kts | 318° |
| 2026-04-23 23:35 | 50.85616 | 7.16415 | 344 ft | 126 kts | 317° |
| 2026-04-23 23:36 | 50.86203 | 7.15532 | 294 ft | 98 kts | 318° |
| 2026-04-23 23:36 | 50.86595 | 7.14982 | 275 ft | 59 kts | 319° |
| 2026-04-23 23:36 | 50.86868 | 7.14614 | 262 ft | 45 kts | 320° |
| 2026-04-23 23:36 | 50.87080 | 7.14314 | 252 ft | 37 kts | 317° |
| 2026-04-23 23:37 | 50.87240 | 7.14076 | 245 ft | 26 kts | 311° |
| 2026-04-23 23:37 | 50.87306 | 7.13853 | 241 ft | 19 kts | 282° |
| 2026-04-23 23:37 | 50.87326 | 7.13670 | 237 ft | 14 kts | 279° |
| 2026-04-23 23:37 | 50.87331 | 7.13619 | 240 ft | 0 kts | 279° |
| 2026-04-23 23:39 | 50.87331 | 7.13617 | 240 ft | 2 kts | 279° |
| 2026-04-23 23:39 | 50.87335 | 7.13573 | 236 ft | 2 kts | 278° |
| 2026-04-23 23:40 | 50.87337 | 7.13549 | 234 ft | 0 kts | 278° |
| 2026-04-23 23:40 | 50.87340 | 7.13518 | 234 ft | 6 kts | 278° |
| 2026-04-23 23:40 | 50.87348 | 7.13425 | 232 ft | 11 kts | 279° |
| 2026-04-23 23:41 | 50.87360 | 7.13318 | 232 ft | 9 kts | 283° |
| 2026-04-23 23:41 | 50.87403 | 7.13229 | 232 ft | 8 kts | 317° |
| 2026-04-23 23:41 | 50.87425 | 7.13197 | 232 ft | 6 kts | 318° |
| 2026-04-23 23:41 | 50.87464 | 7.13142 | 232 ft | 10 kts | 318° |
| 2026-04-23 23:42 | 50.87524 | 7.13057 | 232 ft | 14 kts | 318° |
| 2026-04-23 23:42 | 50.87551 | 7.13017 | 232 ft | 1 kts | 309° |
| 2026-04-23 23:42 | 50.87548 | 7.13010 | 232 ft | 0 kts | 250° |
| 2026-04-23 23:42 | 50.87545 | 7.13009 | 232 ft | 0 kts | 218° |
| 2026-04-23 23:43 | 50.87537 | 7.13008 | 233 ft | 2 kts | 185° |
| 2026-04-23 23:43 | 50.87521 | 7.13029 | 232 ft | 2 kts | 135° |
| 2026-04-23 23:43 | 50.87498 | 7.13045 | 232 ft | 4 kts | 185° |
| 2026-04-23 23:43 | 50.87469 | 7.13021 | 232 ft | 6 kts | 213° |
| 2026-04-23 23:44 | 50.87445 | 7.12983 | 232 ft | 1 kts | 222° |
| 2026-04-23 23:44 | 50.87433 | 7.12964 | 232 ft | 0 kts | 229° |